Time;durP1;ratioP1;P1;durP2;ratioP2;P2;SDS_P1;SDS_P2;PMS_P1;PMS_P2;Temp;Humidity;BMP_temperature;BMP_pressure;BME280_temperature;BME280_humidity;BME280_pressure;Samples;Min_cycle;Max_cycle;Signal;HPM_P1;HPM_P2
2022/04/12 00:01:38;;;;;;;7.18;2.60;;;4.30;99.90;;;;;;5040802;28;20221;-74
2022/04/12 00:04:06;;;;;;;2.30;2.15;;;4.30;99.90;;;;;;5040725;28;20409;-74
2022/04/12 00:06:34;;;;;;;9.77;3.05;;;4.30;99.90;;;;;;5040650;28;20206;-74
2022/04/12 00:09:02;;;;;;;8.00;2.60;;;4.30;99.90;;;;;;5040766;28;20216;-74
2022/04/12 00:11:29;;;;;;;3.25;2.00;;;4.30;99.90;;;;;;5040827;28;20232;-72
2022/04/12 00:13:57;;;;;;;5.68;2.85;;;4.20;99.90;;;;;;5041348;28;20217;-73
2022/04/12 00:16:25;;;;;;;3.08;2.42;;;4.30;99.90;;;;;;5044072;28;20293;-73
2022/04/12 00:19:02;;;;;;;3.55;1.90;;;4.30;99.90;;;;;;5049414;28;20218;-73
2022/04/12 00:21:34;;;;;;;2.65;2.42;;;4.20;99.90;;;;;;5050153;28;20267;-68
2022/04/12 00:24:04;;;;;;;2.65;2.20;;;4.20;99.90;;;;;;5044872;28;20233;-67
2022/04/12 00:26:32;;;;;;;3.40;2.58;;;4.20;99.90;;;;;;5032468;28;20201;-67
2022/04/12 00:29:00;;;;;;;3.65;2.30;;;4.20;99.90;;;;;;5028589;28;20277;-72
2022/04/12 00:31:30;;;;;;;5.63;2.10;;;4.20;99.90;;;;;;5031097;28;20222;-72
2022/04/12 00:34:00;;;;;;;6.35;2.20;;;4.20;99.90;;;;;;5030521;28;20229;-72
2022/04/12 00:36:30;;;;;;;3.47;2.80;;;4.30;99.90;;;;;;5034976;28;20202;-72
2022/04/12 00:38:58;;;;;;;6.53;2.95;;;4.30;99.90;;;;;;5025516;28;20781;-72
2022/04/12 00:41:35;;;;;;;5.75;2.70;;;4.30;99.90;;;;;;5020640;28;20222;-71
2022/04/12 00:44:03;;;;;;;10.20;2.53;;;4.30;99.90;;;;;;5020641;28;20205;-72
2022/04/12 00:46:31;;;;;;;8.00;2.50;;;4.30;99.90;;;;;;5020886;28;20459;-72
2022/04/12 00:49:00;;;;;;;3.58;2.30;;;4.30;99.90;;;;;;5020474;28;20235;-72
2022/04/12 00:51:28;;;;;;;2.22;2.05;;;4.30;99.90;;;;;;5031513;28;20226;-72
2022/04/12 00:53:57;;;;;;;4.95;2.50;;;4.20;99.90;;;;;;5020280;28;20202;-73
2022/04/12 00:56:25;;;;;;;2.67;2.42;;;4.20;99.90;;;;;;5020782;28;20224;-73
2022/04/12 00:58:54;;;;;;;8.70;3.05;;;4.20;99.90;;;;;;5020049;28;20236;-72
2022/04/12 01:01:22;;;;;;;3.55;1.92;;;4.20;99.90;;;;;;5020137;28;20222;-72
2022/04/12 01:03:50;;;;;;;4.65;2.50;;;4.30;99.90;;;;;;5020003;28;20210;-72
2022/04/12 01:06:19;;;;;;;3.10;2.10;;;4.30;99.90;;;;;;5018685;28;20221;-71
2022/04/12 01:08:48;;;;;;;3.47;2.60;;;4.30;99.90;;;;;;5019749;28;20324;-71
2022/04/12 01:11:16;;;;;;;2.45;2.20;;;4.40;99.90;;;;;;5019564;28;20609;-72
2022/04/12 01:13:44;;;;;;;2.60;2.40;;;4.40;99.90;;;;;;5031348;28;20214;-72
2022/04/12 01:16:12;;;;;;;2.85;2.28;;;4.40;99.90;;;;;;5021222;28;20222;-72
2022/04/12 01:18:40;;;;;;;3.10;2.50;;;4.40;99.90;;;;;;5019426;28;20812;-73
2022/04/12 01:21:08;;;;;;;2.33;1.90;;;4.40;99.90;;;;;;5019157;28;20219;-74
2022/04/12 01:23:45;;;;;;;3.42;2.65;;;4.40;99.90;;;;;;5020742;28;20296;-73
2022/04/12 01:26:14;;;;;;;4.47;3.03;;;4.40;99.90;;;;;;5019056;28;20244;-73
2022/04/12 01:28:44;;;;;;;4.00;2.33;;;4.40;99.90;;;;;;5018891;28;20208;-72
2022/04/12 01:31:13;;;;;;;6.55;2.40;;;4.40;99.90;;;;;;5019523;28;20226;-72
2022/04/12 01:33:41;;;;;;;2.88;2.28;;;4.40;99.90;;;;;;5019882;28;20564;-70
2022/04/12 01:36:09;;;;;;;2.45;1.77;;;4.40;99.90;;;;;;5021212;28;20226;-74
2022/04/12 01:38:37;;;;;;;4.00;2.30;;;4.40;99.90;;;;;;5021277;28;20289;-75
2022/04/12 01:41:05;;;;;;;6.05;3.10;;;4.40;99.90;;;;;;5019713;28;20569;-75
2022/04/12 01:43:35;;;;;;;3.15;2.45;;;4.40;99.90;;;;;;5019627;28;20300;-75
2022/04/12 01:46:03;;;;;;;3.72;2.55;;;4.40;99.90;;;;;;5019084;28;20379;-72
2022/04/12 01:48:31;;;;;;;5.60;3.45;;;4.40;99.90;;;;;;5018945;28;20467;-73
2022/04/12 01:50:59;;;;;;;6.22;3.28;;;4.30;99.90;;;;;;5019529;28;20234;-74
2022/04/12 01:53:26;;;;;;;6.22;2.40;;;4.30;99.90;;;;;;5019565;28;20208;-73
2022/04/12 01:55:54;;;;;;;3.78;2.58;;;4.30;99.90;;;;;;5018969;28;20747;-73
2022/04/12 01:58:22;;;;;;;2.80;2.60;;;4.30;99.90;;;;;;5018749;28;20203;-72
2022/04/12 02:00:54;;;;;;;3.55;3.25;;;4.30;99.90;;;;;;5021913;28;20774;-72
2022/04/12 02:03:22;;;;;;;3.67;2.97;;;4.30;99.90;;;;;;5027895;28;20221;-72
2022/04/12 02:05:51;;;;;;;6.05;2.40;;;4.30;99.90;;;;;;5019408;28;20198;-73
2022/04/12 02:08:19;;;;;;;2.65;2.45;;;4.20;99.90;;;;;;5019693;28;20571;-75
2022/04/12 02:10:47;;;;;;;9.68;3.60;;;4.30;99.90;;;;;;5020353;28;20219;-73
2022/04/12 02:13:16;;;;;;;4.28;2.88;;;4.30;99.90;;;;;;5019085;28;20206;-75
2022/04/12 02:15:44;;;;;;;2.60;2.40;;;4.20;99.90;;;;;;5018989;28;20222;-75
2022/04/12 02:18:13;;;;;;;5.60;2.65;;;4.30;99.90;;;;;;5017757;28;20232;-74
2022/04/12 02:20:41;;;;;;;8.50;2.75;;;4.20;99.90;;;;;;5018437;28;20230;-74
2022/04/12 02:23:08;;;;;;;2.80;2.60;;;4.10;99.90;;;;;;5018851;28;20228;-74
2022/04/12 02:25:36;;;;;;;4.90;3.05;;;4.10;99.90;;;;;;5018920;28;20591;-73
2022/04/12 02:28:04;;;;;;;2.83;2.40;;;4.20;99.90;;;;;;5018809;28;20212;-72
2022/04/12 02:30:32;;;;;;;3.63;2.60;;;4.10;99.90;;;;;;5019268;28;20222;-72
2022/04/12 02:33:00;;;;;;;4.60;2.80;;;4.10;99.90;;;;;;5019037;28;20456;-72
2022/04/12 02:35:29;;;;;;;3.97;3.42;;;4.10;99.90;;;;;;5018938;28;20325;-73
2022/04/12 02:37:57;;;;;;;8.48;3.03;;;4.20;99.90;;;;;;5018767;28;20233;-73
2022/04/12 02:40:25;;;;;;;7.43;3.00;;;4.10;99.90;;;;;;5026036;28;20325;-72
2022/04/12 02:42:53;;;;;;;4.13;2.45;;;4.10;99.90;;;;;;5035845;28;20242;-72
2022/04/12 02:45:21;;;;;;;4.10;2.65;;;4.10;99.90;;;;;;5020271;28;20205;-72
2022/04/12 02:47:49;;;;;;;5.55;2.92;;;4.10;99.90;;;;;;5018259;28;20706;-72
2022/04/12 02:50:17;;;;;;;4.88;2.65;;;4.10;99.90;;;;;;5018738;28;20264;-72
2022/04/12 02:52:46;;;;;;;4.65;2.55;;;4.10;99.90;;;;;;5019117;28;20213;-72
2022/04/12 02:55:14;;;;;;;2.40;2.30;;;4.10;99.90;;;;;;5018952;28;20222;-72
2022/04/12 02:57:41;;;;;;;7.88;2.97;;;4.10;99.90;;;;;;5018987;28;20206;-73
2022/04/12 03:00:10;;;;;;;3.33;2.70;;;4.20;99.90;;;;;;5018333;28;20770;-70
2022/04/12 03:02:38;;;;;;;6.10;2.85;;;4.20;99.90;;;;;;5018735;28;20209;-71
2022/04/12 03:05:07;;;;;;;2.90;2.60;;;4.20;99.90;;;;;;5018568;28;20206;-73
2022/04/12 03:07:35;;;;;;;4.80;2.92;;;4.20;99.90;;;;;;5019054;28;20321;-72
2022/04/12 03:10:05;;;;;;;4.78;3.70;;;4.30;99.90;;;;;;5019189;28;20207;-73
2022/04/12 03:12:33;;;;;;;5.10;3.20;;;4.20;99.90;;;;;;5019620;28;20209;-72
2022/04/12 03:15:02;;;;;;;7.30;2.80;;;4.30;99.90;;;;;;5018932;28;20357;-73
2022/04/12 03:17:30;;;;;;;3.88;2.40;;;4.30;99.90;;;;;;5018185;28;20198;-73
2022/04/12 03:19:58;;;;;;;7.68;3.10;;;4.30;99.90;;;;;;5018346;28;20256;-73
2022/04/12 03:22:26;;;;;;;5.38;3.20;;;4.20;99.90;;;;;;5019920;28;20317;-73
2022/04/12 03:24:54;;;;;;;3.65;2.40;;;4.30;99.90;;;;;;5019872;28;20202;-72
2022/04/12 03:27:23;;;;;;;6.15;2.75;;;4.30;99.90;;;;;;5020047;28;20449;-72
2022/04/12 03:29:51;;;;;;;5.55;3.05;;;4.30;99.90;;;;;;5019760;28;20203;-72
2022/04/12 03:32:19;;;;;;;6.88;2.95;;;4.30;99.90;;;;;;5021528;28;20223;-72
2022/04/12 03:34:47;;;;;;;7.80;3.40;;;4.30;99.90;;;;;;5021221;28;20599;-72
2022/04/12 03:37:15;;;;;;;3.60;3.30;;;4.30;99.90;;;;;;5021253;28;20288;-73
2022/04/12 03:39:45;;;;;;;5.65;3.40;;;4.30;99.90;;;;;;5021048;28;20662;-73
2022/04/12 03:42:13;;;;;;;5.93;2.55;;;4.30;99.90;;;;;;5021154;28;20464;-72
2022/04/12 03:44:43;;;;;;;3.20;2.95;;;4.30;99.90;;;;;;5021386;28;20203;-72
2022/04/12 03:47:10;;;;;;;8.30;3.30;;;4.30;99.90;;;;;;5021071;28;20198;-72
2022/04/12 03:49:38;;;;;;;5.60;3.10;;;4.20;99.90;;;;;;5020840;28;20203;-72
2022/04/12 03:52:07;;;;;;;4.03;2.70;;;4.20;99.90;;;;;;5032461;28;20241;-73
2022/04/12 03:54:34;;;;;;;3.50;2.83;;;4.20;99.90;;;;;;5020933;28;20210;-73
2022/04/12 03:57:02;;;;;;;4.95;2.67;;;4.20;99.90;;;;;;5021121;28;20708;-73
2022/04/12 03:59:30;;;;;;;4.43;3.22;;;4.20;99.90;;;;;;5025499;28;20198;-74
2022/04/12 04:01:59;;;;;;;3.67;3.38;;;4.20;99.90;;;;;;5042419;28;20775;-74
2022/04/12 04:04:28;;;;;;;3.15;2.50;;;4.20;99.90;;;;;;5041574;28;20229;-74
2022/04/12 04:07:02;;;;;;;6.93;3.38;;;4.20;99.90;;;;;;5041800;28;20263;-73
2022/04/12 04:09:30;;;;;;;4.97;3.53;;;4.20;99.90;;;;;;5041658;28;20216;-74
2022/04/12 04:11:57;;;;;;;5.15;3.20;;;4.20;99.90;;;;;;5041020;28;20725;-74
2022/04/12 04:14:26;;;;;;;6.55;3.70;;;4.20;99.90;;;;;;5040891;28;20201;-74
2022/04/12 04:16:54;;;;;;;5.30;3.13;;;4.20;99.90;;;;;;5040459;28;20226;-74
2022/04/12 04:19:24;;;;;;;5.50;3.63;;;4.20;99.90;;;;;;5034959;28;20209;-73
2022/04/12 04:21:52;;;;;;;4.05;3.30;;;4.20;99.90;;;;;;5027557;28;20233;-72
2022/04/12 04:24:20;;;;;;;4.65;3.10;;;4.20;99.90;;;;;;5031323;28;20209;-72
2022/04/12 04:26:49;;;;;;;6.47;3.65;;;4.30;99.90;;;;;;5034322;28;20594;-74
2022/04/12 04:29:17;;;;;;;7.70;5.40;;;4.30;99.90;;;;;;5020126;28;20708;-73
2022/04/12 04:31:44;;;;;;;4.90;4.40;;;4.30;99.90;;;;;;5019998;28;20237;-73
2022/04/12 04:34:12;;;;;;;4.05;3.17;;;4.30;99.90;;;;;;5020466;28;20444;-73
2022/04/12 04:36:41;;;;;;;6.18;2.70;;;4.30;99.90;;;;;;5020755;28;20394;-73
2022/04/12 04:39:09;;;;;;;5.10;2.97;;;4.30;99.90;;;;;;5020092;28;20206;-73
2022/04/12 04:41:37;;;;;;;4.35;2.90;;;4.30;99.90;;;;;;5019494;28;20313;-74
2022/04/12 04:44:05;;;;;;;5.47;3.97;;;4.30;99.90;;;;;;5021081;28;20460;-76
2022/04/12 04:46:33;;;;;;;7.43;4.82;;;4.40;99.90;;;;;;5022141;28;20449;-77
2022/04/12 04:49:01;;;;;;;5.78;4.10;;;4.40;99.90;;;;;;5020533;28;20501;-75
2022/04/12 04:51:29;;;;;;;3.35;3.05;;;4.50;99.90;;;;;;5022570;28;20226;-77
2022/04/12 04:53:59;;;;;;;4.10;2.90;;;4.50;99.90;;;;;;5021527;28;20249;-77
2022/04/12 04:56:28;;;;;;;13.57;4.90;;;4.50;99.90;;;;;;5037035;28;20336;-76
2022/04/12 04:58:57;;;;;;;4.10;3.80;;;4.60;99.90;;;;;;5039915;28;20725;-75
2022/04/12 05:01:24;;;;;;;6.97;3.55;;;4.70;99.90;;;;;;5047252;28;20217;-74
2022/04/12 05:03:52;;;;;;;3.85;3.40;;;4.80;99.90;;;;;;5050238;28;20373;-74
2022/04/12 05:06:21;;;;;;;4.30;3.15;;;4.80;99.90;;;;;;5049268;28;20193;-75
2022/04/12 05:08:49;;;;;;;4.00;3.60;;;4.90;99.90;;;;;;5046163;28;20194;-73
2022/04/12 05:11:18;;;;;;;4.10;3.45;;;4.90;99.90;;;;;;5043900;28;20264;-74
2022/04/12 05:13:46;;;;;;;6.75;3.55;;;5.00;99.90;;;;;;5045132;28;20202;-72
2022/04/12 05:16:14;;;;;;;5.05;3.70;;;5.10;99.90;;;;;;5041203;28;20190;-76
2022/04/12 05:18:42;;;;;;;3.33;3.05;;;5.20;99.90;;;;;;5036917;28;20219;-78
2022/04/12 05:21:10;;;;;;;9.73;4.07;;;5.20;99.90;;;;;;5039393;28;20221;-72
2022/04/12 05:23:38;;;;;;;4.10;3.47;;;5.30;99.90;;;;;;5038221;28;20209;-72
2022/04/12 05:26:06;;;;;;;4.22;3.92;;;5.30;99.90;;;;;;5038768;28;20202;-73
2022/04/12 05:28:36;;;;;;;5.43;3.60;;;5.50;99.90;;;;;;5034782;28;20468;-75
2022/04/12 05:31:04;;;;;;;3.97;3.58;;;5.60;99.90;;;;;;5028733;28;20491;-72
2022/04/12 05:33:32;;;;;;;5.40;3.83;;;5.70;99.90;;;;;;5019320;28;20725;-75
2022/04/12 05:36:00;;;;;;;3.63;3.28;;;5.80;99.90;;;;;;5029758;28;20220;-75
2022/04/12 05:38:28;;;;;;;7.82;3.58;;;5.80;99.90;;;;;;5038502;28;20704;-77
2022/04/12 05:40:55;;;;;;;6.10;3.85;;;5.90;99.90;;;;;;5032880;28;20313;-77
2022/04/12 05:43:23;;;;;;;3.80;3.45;;;5.90;99.90;;;;;;5033980;28;20263;-78
2022/04/12 05:45:52;;;;;;;3.90;3.45;;;6.00;99.90;;;;;;5038823;28;20462;-77
2022/04/12 05:48:20;;;;;;;5.00;4.07;;;6.00;99.90;;;;;;5021857;28;20214;-76
2022/04/12 05:50:48;;;;;;;4.65;3.50;;;6.10;99.90;;;;;;5037692;28;20444;-75
2022/04/12 05:53:16;;;;;;;5.57;3.70;;;6.10;99.90;;;;;;5025890;28;20249;-75
2022/04/12 05:55:44;;;;;;;6.53;4.93;;;6.10;99.90;;;;;;5033324;28;20343;-75
2022/04/12 05:58:11;;;;;;;7.30;3.58;;;6.10;99.90;;;;;;5020998;28;20394;-74
2022/04/12 06:00:39;;;;;;;4.18;3.63;;;6.20;99.90;;;;;;5038818;28;20218;-76
2022/04/12 06:03:08;;;;;;;6.05;3.55;;;6.30;99.90;;;;;;5039996;28;20310;-76
2022/04/12 06:05:37;;;;;;;7.03;5.15;;;6.40;99.90;;;;;;5019973;28;20310;-76
2022/04/12 06:08:06;;;;;;;3.40;3.10;;;6.50;99.90;;;;;;5024567;28;20206;-75
2022/04/12 06:10:34;;;;;;;10.80;5.47;;;6.60;99.90;;;;;;5028592;28;20577;-75
2022/04/12 06:13:02;;;;;;;4.32;3.92;;;6.70;99.90;;;;;;5020514;28;20670;-75
2022/04/12 06:15:30;;;;;;;4.28;3.45;;;6.80;99.90;;;;;;5022392;28;20673;-76
2022/04/12 06:17:58;;;;;;;8.27;3.45;;;6.90;99.90;;;;;;5027475;28;20380;-76
2022/04/12 06:20:27;;;;;;;4.70;3.60;;;7.00;99.90;;;;;;5041185;28;20320;-75
2022/04/12 06:22:55;;;;;;;8.63;4.03;;;7.10;99.90;;;;;;5040257;28;20591;-76
2022/04/12 06:25:22;;;;;;;6.07;3.50;;;7.20;99.90;;;;;;5040692;28;20267;-74
2022/04/12 06:27:52;;;;;;;4.93;3.78;;;7.30;99.90;;;;;;5040540;28;20204;-76
2022/04/12 06:30:22;;;;;;;4.70;3.03;;;7.30;99.90;;;;;;5039685;28;20721;-77
2022/04/12 06:32:50;;;;;;;4.63;3.42;;;7.40;99.90;;;;;;5038880;28;20710;-77
2022/04/12 06:35:18;;;;;;;3.13;2.80;;;7.40;99.90;;;;;;5036826;28;20205;-76
2022/04/12 06:37:48;;;;;;;4.32;3.42;;;7.40;99.90;;;;;;5032712;28;20307;-78
2022/04/12 06:40:19;;;;;;;4.55;2.97;;;7.50;99.90;;;;;;5036673;28;20204;-77
2022/04/12 06:42:48;;;;;;;3.08;2.88;;;7.50;99.90;;;;;;5032283;28;20204;-77
2022/04/12 06:45:16;;;;;;;4.28;3.13;;;7.60;99.90;;;;;;5026090;28;20289;-77
2022/04/12 06:47:44;;;;;;;3.60;3.30;;;7.60;99.90;;;;;;5030521;28;20517;-75
2022/04/12 06:50:13;;;;;;;4.25;2.90;;;7.60;99.90;;;;;;5025512;28;20222;-75
2022/04/12 06:52:41;;;;;;;5.15;2.90;;;7.70;99.90;;;;;;5024175;28;20349;-74
2022/04/12 06:55:10;;;;;;;5.82;3.33;;;7.70;99.90;;;;;;5035852;28;20228;-76
2022/04/12 06:57:38;;;;;;;7.57;3.45;;;7.80;99.90;;;;;;5037768;28;20222;-76
2022/04/12 07:00:08;;;;;;;6.13;4.00;;;7.80;99.90;;;;;;5038462;28;20198;-75
2022/04/12 07:02:37;;;;;;;3.35;3.13;;;7.90;99.90;;;;;;5038134;28;20224;-76
2022/04/12 07:05:07;;;;;;;4.45;3.03;;;8.00;99.90;;;;;;5039945;28;20855;-76
2022/04/12 07:07:37;;;;;;;3.80;3.40;;;8.10;99.90;;;;;;5039282;28;20197;-76
2022/04/12 07:10:07;;;;;;;3.05;2.85;;;8.20;99.90;;;;;;5038624;28;20389;-74
2022/04/12 07:12:37;;;;;;;8.13;3.60;;;8.30;99.90;;;;;;5029949;28;20214;-74
2022/04/12 07:15:07;;;;;;;3.33;3.05;;;8.30;99.90;;;;;;5024932;28;20263;-76
2022/04/12 07:17:36;;;;;;;3.20;2.90;;;8.30;99.90;;;;;;5039379;28;20419;-76
2022/04/12 07:20:06;;;;;;;3.95;3.10;;;8.40;99.90;;;;;;5042953;28;20368;-74
2022/04/12 07:22:34;;;;;;;3.55;2.90;;;8.50;99.90;;;;;;5040820;28;20681;-75
2022/04/12 07:25:02;;;;;;;4.18;3.47;;;8.60;99.90;;;;;;5043462;28;20221;-75
2022/04/12 07:27:34;;;;;;;3.30;2.80;;;8.70;99.90;;;;;;5037365;28;20341;-75
2022/04/12 07:30:05;;;;;;;4.00;3.42;;;8.70;99.90;;;;;;5031402;28;20198;-76
2022/04/12 07:32:33;;;;;;;5.28;2.70;;;8.90;99.90;;;;;;5032662;28;20216;-73
2022/04/12 07:35:01;;;;;;;3.67;3.30;;;9.00;99.90;;;;;;5037005;28;20502;-76
2022/04/12 07:37:36;;;;;;;3.65;3.45;;;9.10;99.90;;;;;;5028681;28;20236;-76
2022/04/12 07:40:06;;;;;;;3.33;2.85;;;9.10;99.90;;;;;;5033877;28;20206;-74
2022/04/12 07:42:33;;;;;;;4.10;3.00;;;9.20;99.90;;;;;;5032377;28;20209;-76
2022/04/12 07:45:03;;;;;;;5.00;3.80;;;9.30;99.90;;;;;;5036781;28;20210;-75
2022/04/12 07:47:35;;;;;;;3.42;3.13;;;9.40;99.90;;;;;;5042705;28;20876;-75
2022/04/12 07:50:03;;;;;;;3.92;3.08;;;9.50;99.90;;;;;;5042238;28;20709;-76
2022/04/12 07:52:31;;;;;;;5.38;3.10;;;9.60;99.90;;;;;;5043020;28;20851;-75
2022/04/12 07:54:59;;;;;;;5.32;3.10;;;9.70;99.90;;;;;;5022980;28;20437;-75
2022/04/12 07:57:28;;;;;;;3.60;3.00;;;9.90;99.90;;;;;;5042767;28;20269;-76
2022/04/12 07:59:57;;;;;;;3.25;2.95;;;10.00;99.90;;;;;;5043903;28;20221;-74
2022/04/12 08:02:27;;;;;;;3.03;2.83;;;10.10;99.90;;;;;;5043870;28;20552;-76
2022/04/12 08:04:55;;;;;;;4.70;3.33;;;10.20;99.90;;;;;;5045356;28;20209;-76
2022/04/12 08:07:24;;;;;;;4.60;3.10;;;10.30;99.90;;;;;;5046073;28;20213;-74
2022/04/12 08:09:52;;;;;;;3.53;3.17;;;10.40;99.90;;;;;;5045812;28;20494;-75
2022/04/12 08:12:20;;;;;;;3.20;3.00;;;10.50;99.90;;;;;;5045563;28;20299;-76
2022/04/12 08:14:48;;;;;;;3.92;3.00;;;10.50;99.90;;;;;;5045848;28;20826;-76
2022/04/12 08:17:16;;;;;;;3.35;3.05;;;10.70;99.90;;;;;;5045526;28;20263;-75
2022/04/12 08:19:46;;;;;;;4.45;3.03;;;10.70;99.90;;;;;;5032125;28;20222;-76
2022/04/12 08:22:14;;;;;;;3.60;3.30;;;10.80;99.90;;;;;;5035761;28;20312;-76
2022/04/12 08:25:02;;;;;;;3.70;3.30;;;10.80;99.90;;;;;;5030117;28;20222;-76
2022/04/12 08:27:30;;;;;;;3.50;3.30;;;10.80;99.90;;;;;;5024115;28;20369;-76
2022/04/12 08:29:58;;;;;;;4.05;3.42;;;11.00;99.90;;;;;;5036814;28;20280;-76
2022/04/12 08:32:26;;;;;;;4.00;3.10;;;11.00;99.90;;;;;;5032701;28;20600;-76
2022/04/12 08:34:55;;;;;;;3.22;2.80;;;11.00;99.90;;;;;;5027902;28;21104;-75
2022/04/12 08:37:24;;;;;;;2.95;2.75;;;11.00;99.90;;;;;;5038631;28;20198;-75
2022/04/12 08:39:52;;;;;;;3.97;2.92;;;11.00;99.90;;;;;;5040465;28;20598;-75
2022/04/12 08:42:21;;;;;;;4.77;3.80;;;11.10;99.90;;;;;;5041206;28;20228;-75
2022/04/12 08:44:50;;;;;;;3.77;3.47;;;11.10;99.90;;;;;;5040831;28;20940;-76
2022/04/12 08:47:22;;;;;;;8.90;3.20;;;11.10;99.90;;;;;;5040958;28;20439;-76
2022/04/12 08:49:50;;;;;;;3.73;3.33;;;11.10;99.90;;;;;;5040112;28;20859;-76
2022/04/12 08:52:19;;;;;;;3.70;3.40;;;11.10;99.90;;;;;;5041155;28;20498;-69
2022/04/12 08:54:47;;;;;;;6.53;3.38;;;11.20;99.90;;;;;;5041787;28;20440;-71
2022/04/12 08:57:15;;;;;;;5.63;3.57;;;11.20;99.90;;;;;;5040797;28;20210;-70
2022/04/12 08:59:42;;;;;;;3.25;3.05;;;11.30;99.90;;;;;;5040799;28;20690;-75
2022/04/12 09:02:11;;;;;;;3.73;3.40;;;11.50;99.90;;;;;;5040818;28;20389;-73
2022/04/12 09:04:39;;;;;;;3.40;3.03;;;11.50;99.90;;;;;;5039662;28;20807;-71
2022/04/12 09:07:09;;;;;;;3.57;3.37;;;11.60;99.90;;;;;;5037483;28;20457;-71
2022/04/12 09:09:41;;;;;;;4.60;3.60;;;11.70;99.90;;;;;;5035118;28;20828;-72
2022/04/12 09:12:10;;;;;;;4.03;3.47;;;11.80;99.90;;;;;;5020135;28;20457;-71
2022/04/12 09:14:40;;;;;;;4.87;3.90;;;12.00;99.90;;;;;;5022669;28;20528;-72
2022/04/12 09:17:10;;;;;;;5.40;4.50;;;12.20;99.90;;;;;;5039753;28;21087;-72
2022/04/12 09:19:40;;;;;;;4.53;3.80;;;12.40;99.90;;;;;;5035910;28;20574;-71
2022/04/12 09:22:17;;;;;;;4.80;4.27;;;12.60;99.90;;;;;;5020134;28;20595;-72
2022/04/12 09:24:48;;;;;;;6.97;4.43;;;12.60;99.80;;;;;;5019843;28;20532;-72
2022/04/12 09:27:18;;;;;;;4.57;4.27;;;12.70;99.90;;;;;;5020111;28;20611;-72
2022/04/12 09:29:48;;;;;;;6.17;5.07;;;12.70;99.90;;;;;;5021740;28;20477;-71
2022/04/12 09:32:16;;;;;;;5.90;5.17;;;12.80;99.90;;;;;;5020532;28;20475;-72
2022/04/12 09:34:47;;;;;;;6.37;5.67;;;12.90;99.70;;;;;;5021752;28;20441;-71
2022/04/12 09:37:25;;;;;;;4.80;4.30;;;13.10;99.70;;;;;;5024558;28;20506;-72
2022/04/12 09:40:03;;;;;;;6.03;5.30;;;13.20;99.50;;;;;;5039554;28;20568;-72
2022/04/12 09:42:38;;;;;;;5.50;5.00;;;13.40;99.50;;;;;;5030112;28;20857;-71
2022/04/12 09:45:08;;;;;;;7.30;5.00;;;13.50;99.40;;;;;;5023991;28;20455;-81
2022/04/12 09:47:36;;;;;;;5.40;4.90;;;13.60;99.10;;;;;;5027916;28;20447;-71
2022/04/12 09:50:25;;;;;;;12.30;6.63;;;13.70;99.30;;;;;;5031516;28;20499;-71
2022/04/12 09:52:54;;;;;;;8.50;5.67;;;13.90;98.80;;;;;;5023563;28;20750;-71
2022/04/12 09:55:40;;;;;;;6.37;5.43;;;14.10;98.60;;;;;;5023964;28;20596;-70
2022/04/12 09:58:12;;;;;;;6.33;5.57;;;14.20;98.20;;;;;;5030839;28;20963;-69
2022/04/12 10:00:41;;;;;;;8.53;6.20;;;14.20;98.30;;;;;;5032226;28;20495;-72
2022/04/12 10:03:12;;;;;;;8.00;6.77;;;14.20;98.00;;;;;;5028698;28;20510;-73
2022/04/12 10:05:44;;;;;;;7.80;6.30;;;14.30;97.80;;;;;;5031223;28;20452;-72
2022/04/12 10:08:16;;;;;;;6.90;5.60;;;14.40;98.20;;;;;;5029298;28;20532;-71
2022/04/12 10:10:46;;;;;;;8.03;6.40;;;14.40;98.30;;;;;;5024771;28;20966;-72
2022/04/12 10:13:17;;;;;;;7.03;6.33;;;14.40;97.70;;;;;;5019894;28;20452;-69
2022/04/12 10:15:45;;;;;;;6.57;5.90;;;14.40;97.70;;;;;;5020627;28;20483;-71
2022/04/12 10:18:17;;;;;;;9.27;6.00;;;14.50;97.90;;;;;;5023903;28;20545;-71
2022/04/12 10:20:45;;;;;;;6.77;6.10;;;14.40;97.50;;;;;;5025563;28;20506;-70
2022/04/12 10:23:19;;;;;;;10.50;6.50;;;14.60;97.40;;;;;;5040293;28;20440;-72
2022/04/12 10:25:51;;;;;;;6.50;5.63;;;14.80;97.30;;;;;;5037993;28;20730;-71
2022/04/12 10:28:21;;;;;;;7.73;6.27;;;14.80;97.20;;;;;;5039843;28;20464;-71
2022/04/12 10:30:49;;;;;;;7.43;6.67;;;14.80;97.50;;;;;;5037614;28;20474;-72
2022/04/12 10:33:24;;;;;;;12.03;6.20;;;14.90;97.40;;;;;;5034029;28;20538;-72
2022/04/12 10:36:02;;;;;;;6.60;6.00;;;15.10;97.30;;;;;;5037379;28;20482;-72
2022/04/12 10:38:42;;;;;;;6.60;6.00;;;15.20;97.10;;;;;;5032451;28;20457;-72
2022/04/12 10:41:16;;;;;;;8.07;6.03;;;15.30;97.10;;;;;;5038334;28;20891;-73
2022/04/12 10:43:44;;;;;;;7.97;5.73;;;15.30;97.60;;;;;;5043425;28;20702;-72
2022/04/12 10:46:19;;;;;;;9.23;6.40;;;15.40;97.00;;;;;;5038754;28;20946;-73
2022/04/12 10:48:55;;;;;;;8.57;6.50;;;15.50;96.80;;;;;;5044652;28;20533;-72
2022/04/12 10:51:38;;;;;;;7.17;6.47;;;15.60;96.80;;;;;;5051992;28;20537;-72
2022/04/12 10:54:07;;;;;;;6.00;5.50;;;15.60;96.50;;;;;;5052254;28;20519;-72
2022/04/12 10:56:36;;;;;;;8.00;6.30;;;15.70;97.00;;;;;;5030379;28;20971;-73
2022/04/12 10:59:04;;;;;;;6.80;5.60;;;15.80;96.70;;;;;;5044108;28;20448;-73
2022/04/12 11:01:35;;;;;;;8.43;6.60;;;15.90;96.30;;;;;;5049860;28;21087;-73
2022/04/12 11:04:04;;;;;;;7.20;6.10;;;15.80;96.20;;;;;;5035444;28;20780;-73
2022/04/12 11:06:33;;;;;;;7.70;6.50;;;15.80;96.20;;;;;;5026749;28;20565;-72
2022/04/12 11:09:11;;;;;;;7.37;6.27;;;15.60;96.20;;;;;;5028604;28;21111;-74
2022/04/12 11:11:42;;;;;;;9.10;7.70;;;15.50;96.10;;;;;;5040885;28;20486;-74
2022/04/12 11:14:29;;;;;;;6.53;5.83;;;15.40;96.20;;;;;;5043509;28;20446;-72
2022/04/12 11:17:01;;;;;;;7.40;6.50;;;15.10;96.40;;;;;;5043508;28;20707;-72
2022/04/12 11:19:40;;;;;;;9.00;7.00;;;14.90;96.40;;;;;;5043468;28;20456;-72
2022/04/12 11:22:11;;;;;;;7.47;6.70;;;14.80;96.70;;;;;;5044082;28;21012;-72
2022/04/12 11:24:39;;;;;;;8.77;7.60;;;14.70;97.10;;;;;;5044098;28;20494;-73
2022/04/12 11:27:10;;;;;;;7.40;6.60;;;14.70;97.00;;;;;;5043729;28;20444;-73
2022/04/12 11:29:43;;;;;;;8.37;7.03;;;14.70;97.50;;;;;;5043477;28;20448;-73
2022/04/12 11:32:12;;;;;;;7.27;6.27;;;14.70;97.40;;;;;;5042723;28;20753;-73
2022/04/12 11:34:41;;;;;;;6.30;5.70;;;14.70;97.50;;;;;;5043129;28;20528;-73
2022/04/12 11:37:10;;;;;;;7.30;6.00;;;14.70;97.60;;;;;;5043905;28;20452;-73
2022/04/12 11:39:41;;;;;;;8.47;6.60;;;14.80;97.30;;;;;;5043257;28;20718;-73
2022/04/12 11:42:12;;;;;;;7.23;6.53;;;14.90;97.20;;;;;;5043379;28;20563;-72
2022/04/12 11:44:41;;;;;;;7.30;6.60;;;14.90;97.40;;;;;;5043314;28;20440;-73
2022/04/12 11:47:11;;;;;;;7.87;6.50;;;14.90;97.30;;;;;;5043526;28;20435;-72
2022/04/12 11:49:40;;;;;;;7.50;6.70;;;14.90;97.20;;;;;;5043003;28;21105;-73
2022/04/12 11:52:11;;;;;;;10.40;7.57;;;14.90;97.10;;;;;;5042445;28;21010;-73
2022/04/12 11:54:41;;;;;;;8.67;7.77;;;15.00;97.10;;;;;;5044210;28;20440;-72
2022/04/12 11:57:12;;;;;;;7.50;6.73;;;15.00;97.10;;;;;;5047424;28;20421;-73
2022/04/12 11:59:50;;;;;;;9.10;7.53;;;15.00;97.20;;;;;;5049001;28;20436;-73
2022/04/12 12:02:19;;;;;;;6.47;5.87;;;15.10;97.10;;;;;;5042564;28;20459;-73
2022/04/12 12:04:49;;;;;;;9.40;8.07;;;15.20;97.00;;;;;;5042395;28;20515;-73
2022/04/12 12:07:17;;;;;;;6.67;5.97;;;15.20;96.80;;;;;;5042651;28;20540;-73
2022/04/12 12:09:54;;;;;;;6.80;6.10;;;15.30;96.80;;;;;;5042509;28;20894;-74
2022/04/12 12:12:32;;;;;;;8.80;6.93;;;15.30;96.80;;;;;;5037978;28;20776;-72
2022/04/12 12:15:21;;;;;;;7.70;6.60;;;15.40;96.80;;;;;;5025087;28;20555;-73
2022/04/12 12:17:51;;;;;;;12.00;7.43;;;15.40;97.10;;;;;;5037208;28;20963;-71
2022/04/12 12:20:21;;;;;;;7.10;6.40;;;15.50;96.80;;;;;;5030778;28;20583;-71
2022/04/12 12:22:52;;;;;;;11.70;6.83;;;15.50;96.60;;;;;;5040222;28;20463;-72
2022/04/12 12:25:37;;;;;;;7.17;6.47;;;15.50;96.70;;;;;;5040595;28;20542;-72
2022/04/12 12:28:13;;;;;;;13.87;6.80;;;15.50;96.50;;;;;;5040435;28;20432;-83
2022/04/12 12:30:42;;;;;;;11.00;8.27;;;15.60;96.70;;;;;;5036557;28;20983;-73
2022/04/12 12:33:12;;;;;;;10.30;7.50;;;15.60;96.60;;;;;;5032498;28;20924;-73
2022/04/12 12:35:45;;;;;;;8.00;6.77;;;15.70;96.80;;;;;;5033308;28;20466;-73
2022/04/12 12:38:15;;;;;;;8.60;7.10;;;15.70;96.60;;;;;;5040999;28;20459;-73
2022/04/12 12:40:45;;;;;;;10.10;7.37;;;15.80;96.70;;;;;;5029548;28;20488;-72
2022/04/12 12:43:15;;;;;;;10.20;7.27;;;15.80;97.10;;;;;;5027279;28;20859;-78
2022/04/12 12:45:47;;;;;;;8.17;7.47;;;15.90;97.10;;;;;;5030557;28;20483;-72
2022/04/12 12:48:16;;;;;;;8.20;6.93;;;16.00;96.30;;;;;;5040988;28;20424;-73
2022/04/12 12:50:46;;;;;;;10.77;8.00;;;16.00;97.00;;;;;;5041052;28;20704;-72
2022/04/12 12:53:17;;;;;;;9.50;7.33;;;16.00;96.90;;;;;;5030033;28;20474;-72
2022/04/12 12:55:49;;;;;;;7.87;6.97;;;16.00;96.80;;;;;;5027834;28;20520;-73
2022/04/12 12:58:20;;;;;;;7.70;7.00;;;16.10;96.90;;;;;;5021520;28;20467;-72
2022/04/12 13:00:48;;;;;;;9.53;7.23;;;16.30;96.70;;;;;;5027264;28;20939;-72
2022/04/12 13:03:18;;;;;;;10.63;7.10;;;16.30;96.30;;;;;;5036146;28;20487;-71
2022/04/12 13:05:56;;;;;;;10.23;7.57;;;16.40;96.60;;;;;;5022530;28;21039;-73